createdAt,value
2022-10-19T00:01:52.357Z,82.94
2022-10-19T00:04:19.927Z,82.81
2022-10-19T00:06:47.486Z,82.89
2022-10-19T00:09:15.074Z,83.17
2022-10-19T00:11:43.270Z,82.56
2022-10-19T00:14:10.841Z,83.55
2022-10-19T00:16:38.425Z,83.06
2022-10-19T00:19:06.002Z,83.11
2022-10-19T00:21:33.507Z,83.15
2022-10-19T00:24:01.430Z,83.46
2022-10-19T00:26:28.949Z,83.61
2022-10-19T00:28:56.598Z,83.67
2022-10-19T00:31:24.220Z,83.65
2022-10-19T00:33:51.782Z,83.59
2022-10-19T00:36:19.604Z,83.74
2022-10-19T00:38:47.183Z,83.74
2022-10-19T00:41:15.115Z,84.27
2022-10-19T00:43:42.668Z,83.82
2022-10-19T00:46:10.377Z,83.69
2022-10-19T00:48:38.492Z,84.14
2022-10-19T00:51:06.068Z,83.52
2022-10-19T00:53:33.685Z,84.03
2022-10-19T00:56:01.244Z,83.77
2022-10-19T00:58:28.793Z,84.00
2022-10-19T01:00:56.988Z,84.21
2022-10-19T01:03:24.844Z,83.90
2022-10-19T01:05:52.371Z,84.11
2022-10-19T01:08:19.928Z,84.30
2022-10-19T01:10:47.499Z,84.20
2022-10-19T01:13:15.360Z,84.46
2022-10-19T01:15:43.061Z,84.07
2022-10-19T01:18:10.618Z,84.10
2022-10-19T01:20:38.152Z,83.82
2022-10-19T01:23:05.718Z,83.84
2022-10-19T01:25:35.204Z,83.88
2022-10-19T01:28:03.275Z,83.80
2022-10-19T01:30:31.535Z,83.84
2022-10-19T01:32:59.052Z,83.56
2022-10-19T01:35:26.572Z,83.79
2022-10-19T01:37:54.686Z,83.60
2022-10-19T01:40:22.205Z,83.75
2022-10-19T01:42:49.804Z,83.63
2022-10-19T01:45:17.405Z,83.59
2022-10-19T01:47:44.939Z,83.74
2022-10-19T01:50:13.106Z,84.06
2022-10-19T01:52:40.639Z,83.67
2022-10-19T01:55:08.169Z,83.67
2022-10-19T01:57:35.695Z,83.89
2022-10-19T02:00:07.569Z,83.78
2022-10-19T02:02:36.081Z,83.82
2022-10-19T02:05:03.806Z,83.82
2022-10-19T02:07:31.361Z,83.46
2022-10-19T02:09:59.320Z,83.74
2022-10-19T02:12:26.912Z,83.63
2022-10-19T02:14:55.198Z,83.04
2022-10-19T02:17:22.808Z,83.13
2022-10-19T02:19:50.345Z,83.03
2022-10-19T02:22:17.898Z,83.16
2022-10-19T02:24:45.423Z,83.74
2022-10-19T02:27:13.547Z,83.33
2022-10-19T02:29:41.122Z,83.61
2022-10-19T02:32:09.125Z,83.47
2022-10-19T02:34:36.639Z,83.31
2022-10-19T02:37:04.223Z,83.52
2022-10-19T02:39:32.321Z,83.55
2022-10-19T02:41:59.861Z,83.25
2022-10-19T02:44:27.433Z,83.42
2022-10-19T02:46:54.931Z,83.67
2022-10-19T02:49:22.466Z,83.71
2022-10-19T02:51:50.400Z,83.55
2022-10-19T02:54:18.593Z,83.79
2022-10-19T02:56:46.154Z,83.86
2022-10-19T02:59:13.748Z,83.81
2022-10-19T03:01:41.288Z,83.39
2022-10-19T03:04:09.186Z,83.86
2022-10-19T03:06:36.797Z,83.88
2022-10-19T03:09:04.364Z,83.74
2022-10-19T03:11:31.936Z,83.74
2022-10-19T03:13:59.525Z,83.43
2022-10-19T03:16:27.444Z,83.63
2022-10-19T03:18:55.035Z,83.38
2022-10-19T03:21:22.651Z,83.48
2022-10-19T03:23:50.199Z,83.68
2022-10-19T03:26:17.771Z,83.57
2022-10-19T03:28:46.007Z,83.15
2022-10-19T03:31:13.622Z,83.67
2022-10-19T03:33:41.179Z,83.00
2022-10-19T03:36:09.269Z,83.15
2022-10-19T03:38:36.868Z,83.51
2022-10-19T03:41:04.997Z,83.23
2022-10-19T03:43:32.589Z,83.69
2022-10-19T03:46:00.118Z,83.30
2022-10-19T03:48:28.142Z,83.05
2022-10-19T03:50:55.762Z,83.24
2022-10-19T03:53:24.003Z,83.34
2022-10-19T03:55:51.585Z,83.43
2022-10-19T03:58:19.608Z,83.27
2022-10-19T04:00:47.198Z,83.42
2022-10-19T04:03:14.848Z,83.45
2022-10-19T04:05:42.796Z,83.36
2022-10-19T04:08:10.389Z,83.50
2022-10-19T04:10:37.959Z,83.56
2022-10-19T04:13:05.577Z,83.63
2022-10-19T04:15:33.180Z,83.55
2022-10-19T04:18:01.363Z,83.74
2022-10-19T04:20:28.973Z,83.78
2022-10-19T04:22:56.533Z,84.18
2022-10-19T04:25:24.108Z,83.89
2022-10-19T04:27:51.734Z,84.10
2022-10-19T04:30:19.926Z,84.35
2022-10-19T04:32:47.495Z,84.26
2022-10-19T04:35:15.322Z,84.61
2022-10-19T04:37:42.914Z,83.99
2022-10-19T04:40:14.868Z,84.50
2022-10-19T04:42:43.341Z,84.42
2022-10-19T04:45:10.918Z,84.17
2022-10-19T04:47:38.515Z,84.73
2022-10-19T04:50:06.120Z,84.21
2022-10-19T04:52:35.301Z,84.76
2022-10-19T04:55:02.924Z,84.18
2022-10-19T04:57:30.587Z,84.49
2022-10-19T04:59:58.219Z,84.58
2022-10-19T05:02:26.292Z,84.67
2022-10-19T05:04:53.951Z,84.89
2022-10-19T05:07:22.073Z,84.22
2022-10-19T05:09:49.659Z,84.39
2022-10-19T05:12:17.275Z,84.64
2022-10-19T05:14:44.877Z,84.73
2022-10-19T05:17:12.833Z,84.69
2022-10-19T05:19:41.032Z,84.64
2022-10-19T05:22:08.620Z,84.21
2022-10-19T05:24:36.485Z,84.62
2022-10-19T05:27:04.110Z,84.77
2022-10-19T05:29:33.954Z,84.44
2022-10-19T05:32:02.138Z,84.74
2022-10-19T05:34:29.812Z,84.60
2022-10-19T05:36:57.551Z,84.30
2022-10-19T05:39:25.122Z,84.58
2022-10-19T05:41:52.747Z,84.21
2022-10-19T05:44:20.915Z,84.34
2022-10-19T05:46:48.513Z,84.40
2022-10-19T05:49:16.149Z,83.83
2022-10-19T05:51:43.708Z,83.50
2022-10-19T05:54:11.278Z,84.27
2022-10-19T05:56:39.229Z,84.17
2022-10-19T05:59:06.886Z,83.93
2022-10-19T06:01:34.537Z,84.20
2022-10-19T06:04:02.242Z,83.86
2022-10-19T06:06:30.201Z,84.01
2022-10-19T06:08:59.383Z,83.65
2022-10-19T06:11:27.074Z,83.89
2022-10-19T06:13:54.802Z,83.56
2022-10-19T06:16:23.021Z,84.05
2022-10-19T06:18:50.694Z,83.94
2022-10-19T06:21:19.001Z,83.36
2022-10-19T06:23:46.646Z,84.13
2022-10-19T06:26:14.295Z,83.83
2022-10-19T06:28:42.312Z,83.40
2022-10-19T06:31:10.026Z,83.43
2022-10-19T06:33:38.365Z,83.20
2022-10-19T06:36:06.051Z,83.53
2022-10-19T06:38:34.130Z,83.66
2022-10-19T06:41:01.933Z,83.25
2022-10-19T06:43:29.641Z,83.37
2022-10-19T06:45:57.496Z,83.23
2022-10-19T06:48:25.609Z,83.09
2022-10-19T06:50:53.800Z,82.75
2022-10-19T06:53:21.459Z,83.02
2022-10-19T06:55:49.098Z,82.38
2022-10-19T06:58:17.040Z,82.81
2022-10-19T07:00:44.912Z,82.30
2022-10-19T07:03:12.882Z,82.31
2022-10-19T07:05:40.549Z,82.47
2022-10-19T07:08:08.478Z,81.86
2022-10-19T07:10:36.732Z,82.21
2022-10-19T07:13:04.929Z,82.08
2022-10-19T07:15:32.533Z,82.31
2022-10-19T07:18:00.386Z,81.90
2022-10-19T07:20:28.080Z,81.73
2022-10-19T07:22:56.279Z,81.76
2022-10-19T07:25:24.087Z,81.82
2022-10-19T07:27:51.793Z,81.28
2022-10-19T07:30:20.751Z,81.57
2022-10-19T07:32:48.492Z,81.27
2022-10-19T07:35:18.241Z,81.37
2022-10-19T07:37:45.998Z,81.29
2022-10-19T07:40:13.827Z,80.65
2022-10-19T07:42:41.523Z,80.71
2022-10-19T07:45:09.265Z,80.80
2022-10-19T07:47:37.762Z,80.71
2022-10-19T07:50:05.483Z,80.79
2022-10-19T07:52:36.026Z,80.24
2022-10-19T07:55:04.883Z,80.08
2022-10-19T07:57:32.922Z,79.83
2022-10-19T08:00:01.503Z,79.41
2022-10-19T08:02:39.416Z,79.90
2022-10-19T08:05:17.622Z,79.75
2022-10-19T08:07:47.112Z,79.22
2022-10-19T08:10:15.319Z,78.29
2022-10-19T08:12:42.987Z,78.05
2022-10-19T08:15:10.894Z,78.18
2022-10-19T08:17:38.928Z,77.34
2022-10-19T08:20:06.717Z,77.33
2022-10-19T08:22:35.420Z,76.89
2022-10-19T08:25:03.431Z,76.82
2022-10-19T08:27:31.205Z,76.34
2022-10-19T08:29:59.001Z,76.87
2022-10-19T08:32:26.717Z,75.92
2022-10-19T08:34:54.761Z,75.46
2022-10-19T08:37:39.921Z,75.43
2022-10-19T08:40:10.128Z,74.88
2022-10-19T08:42:37.928Z,74.31
2022-10-19T08:45:06.614Z,74.63
2022-10-19T08:47:34.481Z,74.29
2022-10-19T08:50:02.517Z,74.27
2022-10-19T08:52:34.237Z,73.82
2022-10-19T08:55:03.058Z,73.51
2022-10-19T08:57:32.234Z,73.67
2022-10-19T09:00:00.708Z,73.89
2022-10-19T09:02:28.529Z,74.88
2022-10-19T09:04:56.514Z,75.19
2022-10-19T09:07:24.592Z,74.60
2022-10-19T09:09:53.254Z,74.85
2022-10-19T09:12:21.117Z,74.83
2022-10-19T09:14:48.883Z,75.66
2022-10-19T09:17:17.226Z,75.14
2022-10-19T09:19:45.258Z,74.83
2022-10-19T09:22:15.240Z,75.17
2022-10-19T09:24:43.124Z,74.73
2022-10-19T09:27:10.986Z,75.30
2022-10-19T09:29:39.055Z,75.02
2022-10-19T09:32:06.726Z,75.04
2022-10-19T09:34:35.502Z,74.81
2022-10-19T09:37:03.397Z,75.00
2022-10-19T09:39:31.196Z,74.53
2022-10-19T09:41:59.012Z,74.54
2022-10-19T09:44:27.270Z,74.17
2022-10-19T09:46:55.638Z,74.12
2022-10-19T09:49:23.442Z,74.27
2022-10-19T09:51:51.952Z,73.70
2022-10-19T09:54:19.735Z,73.13
2022-10-19T09:56:47.525Z,72.02
2022-10-19T09:59:15.418Z,70.21
2022-10-19T10:01:43.821Z,67.70
2022-10-19T10:04:11.822Z,66.01
2022-10-19T10:06:40.154Z,64.58
2022-10-19T10:09:08.105Z,63.63
2022-10-19T10:11:36.502Z,62.83
2022-10-19T10:14:07.494Z,62.71
2022-10-19T10:16:37.844Z,62.93
2022-10-19T10:19:05.674Z,63.65
2022-10-19T10:21:34.956Z,64.81
2022-10-19T10:24:03.436Z,65.92
2022-10-19T10:26:31.275Z,66.91
2022-10-19T10:29:01.471Z,67.42
2022-10-19T10:31:29.597Z,67.71
2022-10-19T10:34:02.804Z,68.50
2022-10-19T10:36:39.914Z,68.50
2022-10-19T10:39:07.708Z,68.19
2022-10-19T10:41:35.472Z,68.12
2022-10-19T10:44:05.027Z,68.71
2022-10-19T10:46:32.920Z,68.42
2022-10-19T10:49:01.392Z,69.00
2022-10-19T10:51:29.262Z,69.45
2022-10-19T10:53:58.013Z,69.73
2022-10-19T10:56:25.985Z,69.64
2022-10-19T10:58:53.910Z,69.50
2022-10-19T11:01:22.498Z,69.26
2022-10-19T11:03:50.338Z,69.08
2022-10-19T11:06:19.190Z,68.14
2022-10-19T11:08:47.167Z,68.01
2022-10-19T11:11:15.392Z,67.74
2022-10-19T11:13:43.794Z,67.66
2022-10-19T11:16:11.708Z,68.03
2022-10-19T11:18:39.561Z,68.11
2022-10-19T11:21:07.440Z,68.05
2022-10-19T11:23:35.270Z,67.84
2022-10-19T11:26:03.812Z,67.48
2022-10-19T11:28:31.607Z,67.36
2022-10-19T11:30:59.549Z,67.82
2022-10-19T11:33:27.793Z,67.92
2022-10-19T11:35:55.801Z,67.76
2022-10-19T11:38:29.596Z,67.58
2022-10-19T11:41:17.702Z,67.60
2022-10-19T11:43:45.845Z,66.83
2022-10-19T11:46:13.815Z,67.22
2022-10-19T11:48:43.828Z,67.56
2022-10-19T11:51:20.770Z,66.58
2022-10-19T11:53:49.403Z,65.59
2022-10-19T11:56:17.356Z,66.13
2022-10-19T11:58:46.109Z,66.08
2022-10-19T12:01:14.320Z,65.64
2022-10-19T12:03:42.185Z,65.90
2022-10-19T12:06:11.232Z,65.95
2022-10-19T12:08:39.086Z,65.21
2022-10-19T12:11:07.632Z,65.74
2022-10-19T12:13:35.478Z,65.43
2022-10-19T12:16:03.356Z,64.70
2022-10-19T12:18:31.252Z,64.37
2022-10-19T12:20:58.992Z,63.37
2022-10-19T12:23:27.611Z,63.82
2022-10-19T12:25:55.819Z,64.38
2022-10-19T12:28:23.992Z,63.95
2022-10-19T12:30:51.913Z,63.56
2022-10-19T12:33:19.743Z,63.45
2022-10-19T12:35:50.130Z,64.10
2022-10-19T12:38:17.970Z,64.00
2022-10-19T12:40:45.845Z,64.65
2022-10-19T12:43:13.882Z,64.34
2022-10-19T12:45:41.753Z,64.25
2022-10-19T12:48:11.563Z,64.49
2022-10-19T12:50:39.453Z,64.54
2022-10-19T12:53:07.415Z,64.04
2022-10-19T12:55:36.066Z,63.65
2022-10-19T12:58:04.259Z,63.91
2022-10-19T13:00:33.357Z,63.66
2022-10-19T13:03:01.207Z,63.42
2022-10-19T13:05:28.994Z,62.96
2022-10-19T13:07:56.826Z,62.86
2022-10-19T13:10:24.690Z,62.01
2022-10-19T13:12:53.357Z,61.81
2022-10-19T13:15:21.137Z,61.29
2022-10-19T13:17:50.799Z,60.89
2022-10-19T13:20:18.550Z,60.91
2022-10-19T13:22:46.460Z,61.59
2022-10-19T13:25:14.784Z,61.43
2022-10-19T13:27:42.711Z,61.90
2022-10-19T13:30:10.508Z,61.64
2022-10-19T13:32:38.527Z,61.41
2022-10-19T13:35:06.407Z,61.46
2022-10-19T13:37:34.949Z,60.50
2022-10-19T13:40:02.785Z,60.29
2022-10-19T13:42:30.786Z,59.57
2022-10-19T13:44:58.696Z,59.67
2022-10-19T13:47:28.595Z,59.74
2022-10-19T13:49:57.113Z,59.59
2022-10-19T13:52:25.037Z,59.38
2022-10-19T13:54:52.920Z,59.14
2022-10-19T13:57:20.650Z,59.98
2022-10-19T13:59:48.541Z,59.67
2022-10-19T14:02:18.196Z,60.33
2022-10-19T14:04:45.963Z,60.76
2022-10-19T14:07:14.000Z,60.75
2022-10-19T14:09:41.802Z,60.39
2022-10-19T14:12:10.271Z,60.44
2022-10-19T14:14:38.829Z,60.67
2022-10-19T14:17:06.635Z,60.91
2022-10-19T14:19:34.493Z,60.75
2022-10-19T14:22:02.491Z,61.31
2022-10-19T14:24:30.748Z,61.80
2022-10-19T14:26:59.317Z,61.79
2022-10-19T14:29:27.213Z,61.32
2022-10-19T14:31:55.202Z,61.81
2022-10-19T14:34:22.949Z,61.45
2022-10-19T14:36:50.832Z,60.75
2022-10-19T14:39:19.162Z,60.66
2022-10-19T14:41:47.210Z,60.19
2022-10-19T14:44:15.123Z,60.28
2022-10-19T14:46:42.957Z,60.67
2022-10-19T14:49:11.556Z,60.66
2022-10-19T14:51:39.815Z,60.36
2022-10-19T14:54:07.630Z,59.48
2022-10-19T14:56:35.715Z,59.89
2022-10-19T14:59:03.551Z,59.82
2022-10-19T15:01:31.376Z,60.78
2022-10-19T15:03:59.822Z,60.92
2022-10-19T15:06:27.980Z,61.79
2022-10-19T15:08:55.904Z,62.14
2022-10-19T15:11:23.816Z,62.50
2022-10-19T15:13:52.216Z,63.55
2022-10-19T15:16:20.590Z,63.51
2022-10-19T15:18:49.956Z,63.98
2022-10-19T15:21:18.199Z,64.31
2022-10-19T15:23:45.979Z,65.44
2022-10-19T15:26:17.294Z,65.65
2022-10-19T15:28:47.642Z,66.11
2022-10-19T15:31:15.473Z,66.85
2022-10-19T15:33:43.366Z,67.39
2022-10-19T15:36:17.208Z,67.56
2022-10-19T15:38:45.145Z,67.65
2022-10-19T15:41:13.481Z,67.88
2022-10-19T15:43:41.227Z,68.64
2022-10-19T15:46:09.143Z,68.48
2022-10-19T15:48:36.862Z,68.60
2022-10-19T15:51:05.150Z,69.28
2022-10-19T15:53:33.463Z,68.98
2022-10-19T15:56:01.205Z,69.34
2022-10-19T15:58:29.113Z,69.82
2022-10-19T16:00:56.903Z,69.71
2022-10-19T16:03:24.711Z,70.06
2022-10-19T16:05:53.082Z,70.25
2022-10-19T16:08:20.905Z,70.16
2022-10-19T16:10:48.787Z,70.38
2022-10-19T16:13:16.974Z,70.77
2022-10-19T16:15:47.400Z,71.27
2022-10-19T16:18:18.288Z,70.96
2022-10-19T16:20:46.052Z,70.95
2022-10-19T16:23:14.611Z,71.15
2022-10-19T16:25:42.495Z,71.50
2022-10-19T16:28:10.318Z,71.35
2022-10-19T16:30:38.728Z,72.11
2022-10-19T16:33:06.733Z,71.49
2022-10-19T16:35:35.037Z,71.78
2022-10-19T16:38:02.971Z,72.22
2022-10-19T16:40:32.466Z,72.22
2022-10-19T16:43:01.815Z,71.80
2022-10-19T16:45:29.703Z,71.97
2022-10-19T16:47:57.698Z,72.25
2022-10-19T16:50:25.477Z,72.10
2022-10-19T16:52:53.428Z,72.48
2022-10-19T16:55:21.972Z,72.73
2022-10-19T16:57:50.182Z,72.44
2022-10-19T17:00:18.045Z,72.86
2022-10-19T17:02:46.596Z,73.26
2022-10-19T17:05:14.599Z,73.28
2022-10-19T17:07:43.365Z,73.42
2022-10-19T17:10:11.308Z,73.96
2022-10-19T17:12:39.284Z,74.10
2022-10-19T17:15:41.002Z,73.90
2022-10-19T17:17:56.224Z,73.67
2022-10-19T17:20:24.115Z,73.89
2022-10-19T17:22:52.014Z,73.78
2022-10-19T17:25:19.986Z,73.54
2022-10-19T17:27:47.812Z,73.80
2022-10-19T17:30:16.262Z,74.03
2022-10-19T17:32:44.113Z,73.59
2022-10-19T17:35:11.931Z,73.43
2022-10-19T17:37:39.746Z,73.96
2022-10-19T17:40:07.871Z,74.09
2022-10-19T17:42:36.929Z,73.67
2022-10-19T17:45:04.754Z,73.97
2022-10-19T17:47:32.854Z,73.91
2022-10-19T17:50:00.853Z,73.95
2022-10-19T17:52:28.705Z,74.26
2022-10-19T17:55:13.290Z,74.10
2022-10-19T17:57:41.389Z,74.36
2022-10-19T18:00:09.760Z,74.41
2022-10-19T18:02:37.663Z,74.23
2022-10-19T18:05:06.675Z,74.30
2022-10-19T18:07:34.946Z,74.18
2022-10-19T18:10:03.036Z,73.82
2022-10-19T18:12:30.927Z,73.76
2022-10-19T18:14:58.945Z,74.43
2022-10-19T18:17:28.234Z,74.18
2022-10-19T18:19:56.088Z,73.82
2022-10-19T18:22:24.331Z,74.43
2022-10-19T18:24:52.206Z,74.13
2022-10-19T18:27:19.945Z,74.46
2022-10-19T18:29:48.569Z,74.15
2022-10-19T18:32:16.389Z,74.07
2022-10-19T18:34:44.212Z,74.52
2022-10-19T18:37:12.105Z,74.10
2022-10-19T18:39:39.865Z,74.26
2022-10-19T18:42:08.247Z,74.17
2022-10-19T18:44:36.421Z,74.40
2022-10-19T18:47:04.314Z,74.21
2022-10-19T18:49:32.180Z,74.32
2022-10-19T18:52:00.109Z,74.18
2022-10-19T18:54:28.608Z,74.82
2022-10-19T18:56:56.536Z,74.97
2022-10-19T18:59:24.593Z,74.43
2022-10-19T19:01:52.586Z,74.71
2022-10-19T19:04:20.345Z,74.62
2022-10-19T19:06:50.361Z,74.78
2022-10-19T19:09:19.123Z,74.94
2022-10-19T19:11:46.951Z,74.77
2022-10-19T19:14:16.873Z,74.61
2022-10-19T19:16:44.670Z,74.86
2022-10-19T19:19:13.213Z,74.91
2022-10-19T19:21:44.317Z,75.23
2022-10-19T19:24:12.633Z,75.14
2022-10-19T19:26:40.447Z,75.03
2022-10-19T19:29:08.773Z,75.52
2022-10-19T19:31:37.199Z,75.36
2022-10-19T19:34:06.454Z,75.29
2022-10-19T19:36:34.329Z,75.00
2022-10-19T19:39:02.206Z,74.99
2022-10-19T19:41:31.403Z,75.46
2022-10-19T19:43:59.965Z,75.11
2022-10-19T19:46:27.830Z,75.55
2022-10-19T19:48:55.698Z,75.34
2022-10-19T19:51:23.984Z,75.50
2022-10-19T19:53:51.867Z,75.21
2022-10-19T19:56:21.197Z,75.21
2022-10-19T19:58:49.135Z,75.78
2022-10-19T20:01:16.975Z,75.90
2022-10-19T20:03:45.423Z,76.19
2022-10-19T20:06:13.273Z,75.85
2022-10-19T20:08:41.862Z,76.34
2022-10-19T20:11:09.734Z,76.30
2022-10-19T20:13:38.098Z,76.36
2022-10-19T20:16:07.227Z,76.28
2022-10-19T20:18:35.082Z,76.42
2022-10-19T20:21:03.617Z,76.52
2022-10-19T20:23:31.363Z,76.86
2022-10-19T20:25:59.316Z,76.70
2022-10-19T20:28:27.197Z,76.73
2022-10-19T20:30:55.000Z,76.86
2022-10-19T20:33:23.364Z,76.86
2022-10-19T20:35:51.636Z,77.40
2022-10-19T20:38:19.549Z,77.10
2022-10-19T20:40:47.450Z,77.49
2022-10-19T20:43:16.026Z,77.81
2022-10-19T20:45:44.195Z,77.47
2022-10-19T20:48:12.107Z,76.92
2022-10-19T20:50:40.773Z,77.71
2022-10-19T20:53:09.563Z,76.94
2022-10-19T20:55:37.344Z,77.23
2022-10-19T20:58:06.896Z,77.42
2022-10-19T21:00:34.624Z,77.29
2022-10-19T21:03:02.335Z,77.28
2022-10-19T21:05:30.132Z,77.30
2022-10-19T21:07:58.032Z,77.50
2022-10-19T21:10:26.648Z,77.50
2022-10-19T21:12:54.494Z,77.57
2022-10-19T21:15:22.378Z,77.86
2022-10-19T21:17:50.108Z,77.47
2022-10-19T21:20:17.891Z,77.23
2022-10-19T21:22:46.428Z,77.20
2022-10-19T21:25:14.338Z,77.26
2022-10-19T21:27:42.250Z,77.36
2022-10-19T21:30:10.054Z,77.29
2022-10-19T21:32:37.847Z,77.76
2022-10-19T21:35:06.394Z,77.36
2022-10-19T21:37:34.381Z,77.58
2022-10-19T21:40:02.268Z,77.38
2022-10-19T21:42:30.017Z,77.78
2022-10-19T21:45:06.226Z,77.52
2022-10-19T21:47:40.263Z,77.56
2022-10-19T21:50:08.014Z,77.86
2022-10-19T21:52:35.795Z,77.60
2022-10-19T21:55:03.547Z,78.03
2022-10-19T21:57:31.309Z,77.58
2022-10-19T21:59:59.477Z,77.79
2022-10-19T22:02:27.649Z,77.70
2022-10-19T22:04:55.392Z,77.30
2022-10-19T22:07:23.125Z,77.94
2022-10-19T22:09:50.845Z,77.53
2022-10-19T22:12:18.880Z,77.48
2022-10-19T22:14:46.598Z,77.27
2022-10-19T22:17:14.269Z,77.54
2022-10-19T22:19:41.901Z,77.70
2022-10-19T22:22:09.547Z,77.60
2022-10-19T22:24:38.750Z,77.96
2022-10-19T22:27:06.413Z,77.36
2022-10-19T22:29:34.067Z,78.26
2022-10-19T22:32:01.761Z,77.61
2022-10-19T22:34:29.688Z,77.92
2022-10-19T22:36:57.623Z,77.80
2022-10-19T22:39:27.795Z,77.96
2022-10-19T22:41:55.701Z,77.61
2022-10-19T22:44:23.313Z,77.45
2022-10-19T22:46:50.943Z,77.46
2022-10-19T22:49:19.138Z,77.33
2022-10-19T22:51:46.776Z,77.76
2022-10-19T22:54:14.459Z,77.08
2022-10-19T22:56:42.079Z,77.56
2022-10-19T22:59:09.721Z,77.89
2022-10-19T23:01:37.988Z,77.91
2022-10-19T23:04:05.616Z,77.91
2022-10-19T23:06:33.685Z,78.28
2022-10-19T23:09:01.410Z,78.06
2022-10-19T23:11:29.079Z,78.12
2022-10-19T23:13:57.217Z,78.32
2022-10-19T23:16:24.967Z,78.47
2022-10-19T23:18:52.600Z,78.49
2022-10-19T23:21:20.182Z,78.68
2022-10-19T23:23:47.859Z,79.25
2022-10-19T23:26:16.016Z,79.18
2022-10-19T23:28:44.089Z,79.00
2022-10-19T23:31:11.718Z,79.53
2022-10-19T23:33:39.316Z,79.12
2022-10-19T23:36:06.911Z,79.18
2022-10-19T23:38:35.091Z,79.46
2022-10-19T23:41:02.688Z,78.88
2022-10-19T23:43:30.322Z,79.16
2022-10-19T23:45:58.055Z,78.49
2022-10-19T23:48:25.710Z,78.79
2022-10-19T23:50:55.333Z,78.20
2022-10-19T23:53:22.991Z,77.46
2022-10-19T23:55:50.576Z,77.18
2022-10-19T23:58:18.197Z,77.35
